Time;durP1;ratioP1;P1;durP2;ratioP2;P2;SDS_P1;SDS_P2;PMS_P1;PMS_P2;Temp;Humidity;BMP_temperature;BMP_pressure;BME280_temperature;BME280_humidity;BME280_pressure;Samples;Min_cycle;Max_cycle;Signal;HPM_P1;HPM_P2
2022/05/02 00:00:43;;;;;;;9.48;6.18;;;;;;;13.26;64.30;100271.28;5078917;28;20048;-71
2022/05/02 00:03:13;;;;;;;9.50;6.82;;;;;;;13.13;64.89;100265.94;5096284;28;20068;-71
2022/05/02 00:05:42;;;;;;;9.13;5.60;;;;;;;13.15;65.08;100268.50;5096663;28;20043;-71
2022/05/02 00:08:11;;;;;;;9.63;6.35;;;;;;;13.09;65.45;100269.75;5078119;28;20134;-71
2022/05/02 00:10:39;;;;;;;10.23;6.20;;;;;;;12.81;67.41;100268.16;5096460;28;20048;-71
2022/05/02 00:13:09;;;;;;;9.00;5.75;;;;;;;12.81;67.97;100267.31;5096151;28;20044;-72
2022/05/02 00:15:38;;;;;;;9.88;6.32;;;;;;;12.79;68.15;100261.19;5095602;28;20131;-72
2022/05/02 00:18:08;;;;;;;12.48;6.13;;;;;;;12.72;68.05;100259.91;5076976;28;20382;-73
2022/05/02 00:20:41;;;;;;;11.80;6.50;;;;;;;12.64;68.66;100260.41;5076944;28;20044;-72
2022/05/02 00:23:11;;;;;;;12.30;7.18;;;;;;;12.77;68.13;100263.13;5076584;28;20051;-73
2022/05/02 00:25:39;;;;;;;9.82;6.65;;;;;;;12.81;68.37;100269.97;5095130;28;20044;-73
2022/05/02 00:28:13;;;;;;;10.65;6.80;;;;;;;12.63;69.20;100265.88;5076096;28;20605;-70
2022/05/02 00:30:42;;;;;;;12.18;7.18;;;;;;;12.51;69.52;100263.09;5094909;28;20062;-71
2022/05/02 00:33:11;;;;;;;11.77;6.70;;;;;;;12.57;69.87;100265.34;5076475;28;20052;-71
2022/05/02 00:35:41;;;;;;;9.82;6.40;;;;;;;12.68;69.35;100261.94;5094822;28;20392;-71
2022/05/02 00:38:09;;;;;;;9.20;6.63;;;;;;;12.67;69.29;100267.41;5094260;28;20070;-71
2022/05/02 00:40:37;;;;;;;9.65;6.80;;;;;;;12.76;68.94;100266.78;5094732;28;20111;-69
2022/05/02 00:43:06;;;;;;;10.90;6.40;;;;;;;12.94;68.31;100262.81;5094398;28;20055;-69
2022/05/02 00:45:37;;;;;;;11.40;6.85;;;;;;;12.75;69.54;100275.78;5094635;28;20059;-69
2022/05/02 00:48:06;;;;;;;11.45;6.55;;;;;;;12.76;69.58;100277.47;5094368;28;20052;-69
2022/05/02 00:50:36;;;;;;;9.18;6.53;;;;;;;12.83;69.50;100274.25;5094293;28;20447;-69
2022/05/02 00:53:07;;;;;;;12.57;6.75;;;;;;;12.87;69.04;100280.28;5094321;28;20055;-69
2022/05/02 00:55:36;;;;;;;9.93;7.18;;;;;;;12.83;68.56;100268.03;5094658;28;20044;-69
2022/05/02 00:58:05;;;;;;;9.75;6.72;;;;;;;12.85;68.72;100271.50;5094228;28;20048;-69
2022/05/02 01:00:37;;;;;;;10.70;6.80;;;;;;;12.98;68.71;100261.63;5094262;28;20090;-69
2022/05/02 01:03:08;;;;;;;9.05;6.60;;;;;;;12.82;69.33;100271.69;5094120;28;20101;-69
2022/05/02 01:07:08;;;;;;;12.93;7.40;;;;;;;12.79;70.10;100270.09;5076273;28;20052;-69
2022/05/02 01:08:29;;;;;;;13.25;7.40;;;;;;;12.71;70.28;100269.75;5076069;28;20382;-70
2022/05/02 01:10:58;;;;;;;15.05;8.07;;;;;;;12.70;70.63;100272.53;5094270;28;20408;-70
2022/05/02 01:13:38;;;;;;;12.27;7.40;;;;;;;12.84;70.78;100269.78;5094349;28;20052;-69
2022/05/02 01:16:14;;;;;;;9.77;7.05;;;;;;;12.80;70.29;100268.25;5055886;28;1110072;-71
2022/05/02 01:18:43;;;;;;;10.23;7.05;;;;;;;12.65;71.27;100267.50;5094980;28;20047;-70
2022/05/02 01:21:15;;;;;;;10.57;7.38;;;;;;;12.84;70.12;100262.59;5094510;28;20048;-70
2022/05/02 01:23:44;;;;;;;12.95;7.57;;;;;;;12.75;70.21;100263.25;5095002;28;20058;-70
2022/05/02 01:26:12;;;;;;;14.13;7.82;;;;;;;12.86;69.69;100267.84;5094746;28;20047;-70
2022/05/02 01:28:44;;;;;;;11.65;7.65;;;;;;;12.63;70.67;100261.38;5094854;28;20040;-70
2022/05/02 01:31:14;;;;;;;12.52;7.88;;;;;;;12.51;71.83;100267.59;5094421;28;20036;-70
2022/05/02 01:33:43;;;;;;;12.60;7.55;;;;;;;12.61;72.02;100260.66;5094660;28;20436;-70
2022/05/02 01:36:13;;;;;;;11.20;7.82;;;;;;;12.63;71.70;100263.22;5094550;28;20415;-70
2022/05/02 01:38:42;;;;;;;10.35;7.53;;;;;;;12.70;71.77;100257.34;5092295;28;20055;-70
2022/05/02 01:41:10;;;;;;;12.10;6.95;;;;;;;12.95;70.76;100255.66;5094366;28;20078;-70
2022/05/02 01:43:42;;;;;;;11.38;7.15;;;;;;;12.93;70.64;100247.69;5094274;28;20052;-70
2022/05/02 01:46:12;;;;;;;11.07;7.70;;;;;;;12.70;72.18;100251.13;5094154;28;20056;-70
2022/05/02 01:48:40;;;;;;;13.23;7.13;;;;;;;12.74;70.92;100257.97;5094486;28;20097;-70
2022/05/02 01:51:08;;;;;;;12.38;7.07;;;;;;;12.79;69.58;100261.19;5075993;28;20097;-70
2022/05/02 01:53:38;;;;;;;10.50;7.10;;;;;;;12.75;70.35;100265.06;5094488;28;20562;-70
2022/05/02 01:56:06;;;;;;;9.65;7.05;;;;;;;12.71;70.29;100276.94;5094252;28;20473;-71
2022/05/02 01:58:34;;;;;;;11.85;7.40;;;;;;;12.67;70.96;100283.47;5094777;28;20473;-70
2022/05/02 02:01:03;;;;;;;11.50;7.45;;;;;;;12.68;71.32;100280.69;5094203;28;20040;-77
2022/05/02 02:03:31;;;;;;;14.05;7.40;;;;;;;12.68;71.56;100283.34;5076202;28;20138;-73
2022/05/02 02:06:01;;;;;;;11.30;7.20;;;;;;;12.78;70.17;100270.19;5094016;28;20036;-73
2022/05/02 02:08:31;;;;;;;11.13;7.18;;;;;;;12.86;69.20;100273.22;5094156;28;20048;-73
2022/05/02 02:11:03;;;;;;;11.43;7.32;;;;;;;12.87;69.77;100273.09;5094182;28;20135;-74
2022/05/02 02:13:32;;;;;;;12.55;7.25;;;;;;;12.97;68.93;100269.78;5075959;28;20059;-73
2022/05/02 02:16:01;;;;;;;9.93;6.70;;;;;;;13.03;68.79;100267.53;5094048;28;20165;-73
2022/05/02 02:18:29;;;;;;;12.38;7.03;;;;;;;13.05;67.66;100268.28;5093993;28;20043;-74
2022/05/02 02:20:58;;;;;;;10.95;7.25;;;;;;;13.07;67.53;100265.50;5093618;28;20465;-73
2022/05/02 02:23:26;;;;;;;10.57;6.68;;;;;;;13.07;67.49;100266.34;5093731;28;20063;-73
2022/05/02 02:25:54;;;;;;;12.00;6.90;;;;;;;13.03;67.67;100264.88;5075940;28;20054;-73
2022/05/02 02:28:24;;;;;;;11.90;7.22;;;;;;;13.03;68.41;100267.53;5093610;28;20044;-73
2022/05/02 02:30:52;;;;;;;11.73;6.88;;;;;;;13.05;68.63;100272.78;5093876;28;20044;-73
2022/05/02 02:33:21;;;;;;;10.48;7.13;;;;;;;13.10;69.00;100271.47;5093583;28;20044;-73
2022/05/02 02:35:49;;;;;;;9.27;7.13;;;;;;;13.09;68.94;100266.22;5093464;28;20048;-73
2022/05/02 02:38:17;;;;;;;10.40;6.75;;;;;;;13.08;68.64;100267.19;5093224;28;20044;-73
2022/05/02 02:40:46;;;;;;;12.30;7.50;;;;;;;13.03;69.13;100270.22;5093651;28;20051;-74
2022/05/02 02:43:14;;;;;;;11.30;6.95;;;;;;;12.94;70.10;100273.53;5093289;28;20062;-71
2022/05/02 02:45:44;;;;;;;11.90;6.95;;;;;;;12.96;70.65;100274.28;5093594;28;20046;-71
2022/05/02 02:48:12;;;;;;;10.32;7.25;;;;;;;12.98;71.39;100269.66;5093336;28;20044;-72
2022/05/02 02:50:40;;;;;;;10.70;7.65;;;;;;;13.08;70.30;100268.06;5075298;28;20052;-73
2022/05/02 02:53:08;;;;;;;14.75;7.40;;;;;;;13.08;70.60;100268.06;5093294;28;20043;-73
2022/05/02 02:55:37;;;;;;;12.73;7.10;;;;;;;13.30;69.25;100266.56;5093513;28;20548;-73
2022/05/02 02:58:06;;;;;;;12.20;6.95;;;;;;;13.35;69.35;100256.41;5093454;28;20100;-73
2022/05/02 03:00:34;;;;;;;11.93;7.40;;;;;;;13.17;70.07;100256.69;5075494;28;20142;-73
2022/05/02 03:03:04;;;;;;;12.65;7.72;;;;;;;13.04;70.88;100252.34;5093038;28;20395;-73
2022/05/02 03:08:22;;;;;;;12.38;6.97;;;;;;;12.65;73.10;100270.19;5086830;28;20080;-74
2022/05/02 03:10:52;;;;;;;13.63;7.85;;;;;;;12.50;73.56;100266.72;5075145;28;20059;-74
2022/05/02 03:13:20;;;;;;;10.90;7.65;;;;;;;12.62;73.01;100259.69;5093297;28;20040;-72
2022/05/02 03:15:48;;;;;;;11.70;7.63;;;;;;;12.68;72.19;100269.97;5093305;28;20056;-71
2022/05/02 03:18:19;;;;;;;13.15;7.10;;;;;;;12.64;73.07;100262.25;5074989;28;20113;-70
2022/05/02 03:20:48;;;;;;;10.50;7.82;;;;;;;12.78;72.05;100264.84;5093405;28;20132;-74
2022/05/02 03:23:16;;;;;;;11.95;7.40;;;;;;;12.90;71.28;100253.28;5092984;28;20477;-75
2022/05/02 03:25:44;;;;;;;9.93;7.38;;;;;;;12.92;71.35;100250.50;5093181;28;20119;-75
2022/05/02 03:28:13;;;;;;;10.93;7.53;;;;;;;12.82;71.56;100260.97;5074693;28;20106;-75
2022/05/02 03:30:41;;;;;;;11.77;7.32;;;;;;;12.84;71.15;100249.22;5074589;28;20134;-74
2022/05/02 03:33:10;;;;;;;11.73;7.40;;;;;;;12.92;70.78;100256.69;5074664;28;20051;-75
2022/05/02 03:35:39;;;;;;;10.20;7.50;;;;;;;12.93;70.57;100257.56;5092750;28;20048;-74
2022/05/02 03:38:07;;;;;;;14.95;7.40;;;;;;;12.84;71.09;100257.25;5092977;28;20060;-74
2022/05/02 03:40:35;;;;;;;10.68;7.50;;;;;;;12.89;70.92;100254.25;5092780;28;20036;-74
2022/05/02 03:43:04;;;;;;;10.80;7.65;;;;;;;12.81;71.16;100262.81;5093070;28;20044;-73
2022/05/02 03:45:32;;;;;;;13.23;7.72;;;;;;;12.88;70.78;100255.22;5092855;28;20464;-75
2022/05/02 03:48:00;;;;;;;11.73;7.68;;;;;;;12.86;71.35;100254.47;5093109;28;20499;-75
2022/05/02 03:50:28;;;;;;;14.27;8.00;;;;;;;12.95;70.95;100248.47;5092883;28;20040;-71
2022/05/02 03:52:58;;;;;;;11.02;7.70;;;;;;;12.88;71.46;100258.75;5074808;28;20052;-71
2022/05/02 03:55:27;;;;;;;12.98;8.40;;;;;;;12.98;70.38;100256.28;5092371;28;20048;-72
2022/05/02 03:57:55;;;;;;;13.27;7.72;;;;;;;12.99;69.98;100251.78;5092882;28;20040;-73
2022/05/02 04:00:23;;;;;;;12.32;8.10;;;;;;;12.92;70.76;100251.34;5092613;28;20118;-73
2022/05/02 04:02:52;;;;;;;15.32;9.10;;;;;;;12.94;70.34;100252.13;5095945;28;20050;-71
2022/05/02 04:05:21;;;;;;;12.30;7.65;;;;;;;13.08;69.80;100251.13;5096246;28;20044;-73
2022/05/02 04:07:49;;;;;;;11.73;7.85;;;;;;;13.20;69.25;100249.44;5096473;28;20115;-72
2022/05/02 04:10:19;;;;;;;10.68;7.45;;;;;;;13.25;68.85;100249.97;5096174;28;20204;-72
2022/05/02 04:12:47;;;;;;;12.77;7.80;;;;;;;13.13;69.51;100255.22;5096670;28;20064;-71
2022/05/02 04:15:17;;;;;;;14.95;7.75;;;;;;;13.18;68.59;100252.19;5077649;28;20048;-73
2022/05/02 04:17:46;;;;;;;11.30;7.50;;;;;;;12.93;69.80;100257.56;5077708;28;20112;-73
2022/05/02 04:20:14;;;;;;;11.20;7.68;;;;;;;13.06;68.83;100253.94;5096002;28;20048;-73
2022/05/02 04:22:42;;;;;;;12.15;7.30;;;;;;;13.20;67.19;100254.78;5095941;28;20119;-75
2022/05/02 04:25:10;;;;;;;12.80;7.22;;;;;;;13.05;67.96;100260.25;5095344;28;20060;-74
2022/05/02 04:27:40;;;;;;;10.55;7.15;;;;;;;12.92;68.16;100254.03;5077964;28;20062;-76
2022/05/02 04:30:10;;;;;;;10.98;7.63;;;;;;;13.00;68.51;100264.19;5077909;28;20134;-71
2022/05/02 04:32:39;;;;;;;10.23;7.38;;;;;;;12.89;69.37;100262.28;5096033;28;20397;-71
2022/05/02 04:35:10;;;;;;;13.88;7.97;;;;;;;13.00;69.33;100265.06;5077855;28;20055;-71
2022/05/02 04:37:38;;;;;;;12.00;7.90;;;;;;;12.93;69.50;100265.59;5096142;28;20468;-70
2022/05/02 04:40:08;;;;;;;14.63;8.63;;;;;;;13.09;69.22;100271.59;5095858;28;20040;-71
2022/05/02 04:42:38;;;;;;;13.10;7.57;;;;;;;13.10;69.50;100266.13;5095305;28;20127;-69
2022/05/02 04:45:08;;;;;;;13.50;7.68;;;;;;;13.07;69.67;100269.03;5095663;28;20040;-69
2022/05/02 04:47:37;;;;;;;14.70;8.20;;;;;;;13.10;69.67;100276.84;5077216;28;20052;-73
2022/05/02 04:50:06;;;;;;;10.93;7.63;;;;;;;13.28;68.83;100276.53;5095673;28;20040;-75
2022/05/02 04:52:36;;;;;;;14.52;8.63;;;;;;;13.47;67.82;100284.97;5095364;28;20543;-74
2022/05/02 04:55:06;;;;;;;12.05;7.72;;;;;;;13.49;67.11;100285.72;5095549;28;20044;-74
2022/05/02 04:57:34;;;;;;;16.27;8.05;;;;;;;13.49;67.72;100288.41;5077163;28;20052;-74
2022/05/02 05:00:03;;;;;;;12.77;8.25;;;;;;;13.65;66.41;100283.66;5095492;28;20040;-74
2022/05/02 05:02:34;;;;;;;14.77;8.32;;;;;;;13.62;66.99;100275.84;5076958;28;20072;-74
2022/05/02 05:05:02;;;;;;;12.63;7.93;;;;;;;13.67;66.76;100276.34;5095279;28;20047;-75
2022/05/02 05:07:31;;;;;;;17.60;8.30;;;;;;;13.83;65.65;100275.25;5094743;28;20097;-71
2022/05/02 05:09:59;;;;;;;10.70;7.63;;;;;;;13.98;63.90;100280.31;5094929;28;20078;-70
2022/05/02 05:12:34;;;;;;;14.70;8.02;;;;;;;14.02;63.33;100276.47;5075957;28;20048;-70
2022/05/02 05:18:14;;;;;;;10.80;7.10;;;;;;;14.14;62.27;100282.72;5095217;28;20469;-70
2022/05/02 05:20:54;;;;;;;14.13;8.23;;;;;;;14.40;61.70;100279.94;5076966;28;20048;-70
2022/05/02 05:23:48;;;;;;;12.43;8.25;;;;;;;13.99;63.34;100286.53;5094782;28;20469;-70
2022/05/02 05:26:21;;;;;;;9.43;7.63;;;;;;;14.38;62.19;100281.84;5094420;28;20047;-74
2022/05/02 05:29:02;;;;;;;16.70;8.27;;;;;;;14.70;61.69;100285.69;5094667;28;20047;-70
2022/05/02 05:31:33;;;;;;;13.57;8.10;;;;;;;14.94;60.73;100282.91;5094193;28;20044;-71
2022/05/02 05:34:16;;;;;;;13.40;8.43;;;;;;;14.66;62.21;100281.50;5076462;28;20131;-70
2022/05/02 05:37:21;;;;;;;13.45;8.32;;;;;;;14.84;62.12;100281.91;5094737;28;20036;-71
2022/05/02 05:39:56;;;;;;;11.52;7.82;;;;;;;14.97;60.77;100279.16;5076752;28;20058;-70
2022/05/02 05:42:33;;;;;;;11.93;7.97;;;;;;;15.15;59.89;100275.00;5094474;28;20465;-72
2022/05/02 05:45:05;;;;;;;10.40;7.60;;;;;;;15.24;59.15;100273.41;5094537;28;20048;-71
2022/05/02 05:47:53;;;;;;;10.82;8.52;;;;;;;15.16;59.94;100272.22;5075691;28;20093;-71
2022/05/02 05:50:26;;;;;;;16.77;7.82;;;;;;;15.28;60.24;100273.06;5093903;28;20048;-74
2022/05/02 05:53:05;;;;;;;;;;;;;;;15.41;59.40;100273.78;5094775;28;20060;-71
2022/05/02 05:55:50;;;;;;;14.75;7.35;;;;;;;15.23;58.93;100283.31;5093487;28;19950;-72
2022/05/02 05:58:26;;;;;;;9.63;7.20;;;;;;;15.53;57.17;100276.47;5075592;28;20052;-71
2022/05/02 06:01:06;;;;;;;12.40;7.80;;;;;;;15.63;57.63;100272.09;5075670;28;20523;-71
2022/05/02 06:03:38;;;;;;;10.23;6.88;;;;;;;16.31;54.19;100279.91;5093883;28;20393;-72
2022/05/02 06:06:08;;;;;;;8.45;6.10;;;;;;;16.20;54.22;100281.75;5075509;28;20080;-71
2022/05/02 06:08:37;;;;;;;9.38;7.05;;;;;;;15.94;54.50;100273.16;5093661;28;20072;-71
2022/05/02 06:11:07;;;;;;;12.57;6.82;;;;;;;15.84;54.22;100281.13;5075594;28;20079;-71
2022/05/02 06:13:38;;;;;;;11.75;7.22;;;;;;;15.82;54.52;100283.06;5075430;28;20048;-71
2022/05/02 06:19:12;;;;;;;9.68;6.30;;;;;;;16.14;53.58;100290.34;5093628;28;20043;-71
2022/05/02 06:21:44;;;;;;;9.43;6.57;;;;;;;16.30;53.18;100293.47;5092265;28;20079;-72
2022/05/02 06:24:13;;;;;;;14.90;7.47;;;;;;;16.31;53.83;100296.06;5075497;28;20050;-72
2022/05/02 06:26:44;;;;;;;9.63;6.32;;;;;;;16.26;52.42;100308.16;5075205;28;20461;-71
2022/05/02 06:29:13;;;;;;;9.95;6.70;;;;;;;16.13;52.37;100307.50;5093744;28;20071;-71
2022/05/02 06:31:44;;;;;;;12.23;6.80;;;;;;;16.00;53.83;100308.47;5093230;28;20040;-71
2022/05/02 06:34:14;;;;;;;11.13;7.13;;;;;;;16.15;53.73;100306.38;5093223;28;20068;-71
2022/05/02 06:36:59;;;;;;;11.63;6.72;;;;;;;16.49;53.09;100308.94;5092902;28;20040;-71
2022/05/02 06:39:38;;;;;;;15.88;8.45;;;;;;;16.59;53.35;100299.94;5093097;28;20089;-70
2022/05/02 06:42:20;;;;;;;15.00;7.82;;;;;;;17.11;51.83;100300.94;5075628;28;20113;-70
2022/05/02 06:45:03;;;;;;;13.48;7.53;;;;;;;17.08;51.01;100294.94;5075472;28;20044;-70
2022/05/02 06:47:44;;;;;;;15.48;8.05;;;;;;;17.17;50.38;100291.44;5075135;28;20075;-71
2022/05/02 06:50:19;;;;;;;11.93;7.32;;;;;;;16.96;50.94;100291.47;5075536;28;20048;-70
2022/05/02 06:53:06;;;;;;;12.88;8.00;;;;;;;16.92;51.89;100298.13;5093229;28;20036;-71
2022/05/02 06:55:45;;;;;;;14.20;7.03;;;;;;;16.88;52.09;100302.88;5075033;28;20052;-71
2022/05/02 06:58:30;;;;;;;11.73;6.38;;;;;;;17.03;51.92;100295.34;5075180;28;20048;-71
2022/05/02 07:01:06;;;;;;;9.90;6.35;;;;;;;17.03;52.96;100300.72;5075515;28;20072;-72
2022/05/02 07:03:56;;;;;;;12.57;6.47;;;;;;;17.11;53.12;100300.94;5075022;28;20092;-72
2022/05/02 07:06:38;;;;;;;11.38;6.30;;;;;;;17.42;52.53;100303.63;5074635;28;20500;-80
2022/05/02 07:09:12;;;;;;;11.50;5.78;;;;;;;17.35;52.26;100308.72;5075003;28;20438;-71
2022/05/02 07:11:48;;;;;;;11.35;6.15;;;;;;;17.44;52.16;100299.81;5075147;28;20482;-69
2022/05/02 07:14:27;;;;;;;12.48;6.15;;;;;;;17.48;52.27;100303.13;5075296;28;20052;-72
2022/05/02 07:17:02;;;;;;;10.55;6.05;;;;;;;17.49;52.43;100299.41;5093041;28;20114;-73
2022/05/02 07:19:48;;;;;;;10.43;5.60;;;;;;;17.78;52.22;100299.56;5074704;28;20056;-73
2022/05/02 07:22:26;;;;;;;9.10;5.45;;;;;;;17.79;52.03;100300.41;5092764;28;20051;-73
2022/05/02 07:25:06;;;;;;;9.20;5.25;;;;;;;17.85;51.61;100302.53;5075261;28;20051;-74
2022/05/02 07:27:46;;;;;;;8.35;4.88;;;;;;;18.17;50.41;100295.09;5074774;28;20417;-73
2022/05/02 07:30:17;;;;;;;9.32;5.07;;;;;;;18.20;50.37;100300.22;5093016;28;20040;-76
2022/05/02 07:32:45;;;;;;;7.00;3.92;;;;;;;18.38;49.97;100296.84;5075069;28;20048;-73
2022/05/02 07:35:18;;;;;;;10.15;4.43;;;;;;;18.51;49.81;100300.09;5075382;28;20044;-73
2022/05/02 07:37:48;;;;;;;8.30;4.47;;;;;;;18.81;48.51;100291.84;5096149;28;20048;-73
2022/05/02 07:40:21;;;;;;;12.52;4.72;;;;;;;19.00;48.62;100292.84;5097225;28;20043;-73
2022/05/02 07:42:53;;;;;;;8.23;4.85;;;;;;;19.10;48.05;100280.16;5097036;28;20040;-73
2022/05/02 07:45:27;;;;;;;8.70;4.75;;;;;;;19.33;46.82;100288.78;5078956;28;20134;-73
2022/05/02 07:48:00;;;;;;;6.82;4.07;;;;;;;19.32;46.27;100282.53;5097026;28;20071;-72
2022/05/02 07:50:29;;;;;;;9.45;4.70;;;;;;;19.15;47.94;100291.38;5096639;28;20497;-88
2022/05/02 07:52:59;;;;;;;9.82;4.55;;;;;;;19.07;48.08;100288.56;5078921;28;20040;-72
2022/05/02 07:55:31;;;;;;;7.25;4.10;;;;;;;19.08;48.54;100292.97;5096867;28;20089;-72
2022/05/02 07:58:01;;;;;;;7.57;3.90;;;;;;;19.09;47.62;100287.41;5078819;28;20462;-74
2022/05/02 08:00:30;;;;;;;7.75;4.15;;;;;;;19.04;48.35;100286.16;5078613;28;20493;-78
2022/05/02 08:02:58;;;;;;;8.45;4.07;;;;;;;18.95;48.70;100285.16;5096766;28;20044;-74
2022/05/02 08:05:28;;;;;;;8.02;4.20;;;;;;;18.98;48.31;100278.63;5078339;28;20051;-74
2022/05/02 08:08:06;;;;;;;7.22;4.30;;;;;;;19.03;48.42;100287.16;5078363;28;20044;-74
2022/05/02 08:10:50;;;;;;;5.10;3.55;;;;;;;18.97;48.96;100288.56;5078455;28;20047;-74
2022/05/02 08:13:25;;;;;;;;;;;;;;;18.86;49.67;100286.88;5078806;28;20071;-74
2022/05/02 08:16:02;;;;;;;6.15;3.67;;;;;;;18.81;49.91;100283.75;5077884;28;19920;-74
2022/05/02 08:19:03;;;;;;;6.72;3.80;;;;;;;18.64;48.93;100281.78;5078210;28;20105;-83
2022/05/02 08:21:38;;;;;;;7.20;3.80;;;;;;;18.84;49.36;100272.69;5078219;28;20412;-74
2022/05/02 08:27:25;;;;;;;8.32;3.53;;;;;;;18.82;48.83;100271.97;5078175;28;20059;-73
2022/05/02 08:30:05;;;;;;;6.13;3.50;;;;;;;19.02;49.14;100274.63;5096013;28;20118;-74
2022/05/02 08:32:43;;;;;;;6.63;3.53;;;;;;;18.95;47.83;100274.38;5096127;28;20036;-74
2022/05/02 08:35:17;;;;;;;5.63;3.30;;;;;;;18.93;47.96;100264.69;5095978;28;20036;-74
2022/05/02 08:38:10;;;;;;;6.00;3.40;;;;;;;19.03;48.66;100268.22;5077725;28;20075;-74
2022/05/02 08:41:13;;;;;;;6.23;3.63;;;;;;;18.93;47.44;100270.09;5095661;28;20367;-73
2022/05/02 08:44:13;;;;;;;7.53;3.45;;;;;;;18.88;47.83;100267.81;5095883;28;20067;-74
2022/05/02 08:47:33;;;;;;;7.68;4.70;;;;;;;18.97;49.14;100266.94;5095611;28;20464;-73
2022/05/02 08:50:23;;;;;;;11.38;4.10;;;;;;;19.00;47.36;100265.81;4996878;28;20066;-74
2022/05/02 08:53:22;;;;;;;8.27;4.60;;;;;;;18.99;48.76;100272.22;5071808;28;20077;-74
2022/05/02 08:56:25;;;;;;;9.95;5.68;;;;;;;19.07;48.40;100275.03;5076837;28;20147;-74
2022/05/02 08:59:49;;;;;;;7.47;4.40;;;;;;;19.10;47.43;100270.19;5076959;28;20099;-74
2022/05/02 09:02:56;;;;;;;7.22;4.25;;;;;;;19.25;47.76;100265.16;5077092;28;20484;-77
2022/05/02 09:06:03;;;;;;;9.15;4.05;;;;;;;19.42;47.66;100264.41;5077119;28;20072;-74
2022/05/02 09:08:53;;;;;;;7.50;3.60;;;;;;;19.57;46.75;100259.38;5076890;28;20071;-74
2022/05/02 09:11:34;;;;;;;5.40;3.17;;;;;;;19.54;45.71;100258.78;5095096;28;20501;-74
2022/05/02 09:14:42;;;;;;;5.22;3.13;;;;;;;19.49;45.58;100259.22;5077243;28;20127;-74
2022/05/02 09:17:47;;;;;;;5.18;2.88;;;;;;;19.47;45.93;100257.69;5077082;28;20056;-74
2022/05/02 09:20:43;;;;;;;4.85;2.83;;;;;;;19.68;44.74;100255.59;5084726;28;20058;-74
2022/05/02 09:23:56;;;;;;;6.32;3.22;;;;;;;19.60;45.46;100253.69;5095249;28;20051;-74
2022/05/02 09:26:56;;;;;;;5.65;2.88;;;;;;;19.53;45.47;100252.53;5049321;28;20134;-74
2022/05/02 09:29:51;;;;;;;4.88;2.83;;;;;;;19.69;45.37;100247.38;5095177;28;20123;-74
2022/05/02 09:32:34;;;;;;;5.57;2.45;;;;;;;19.56;44.49;100246.84;5076919;28;20093;-74
2022/05/02 09:35:05;;;;;;;5.82;2.92;;;;;;;19.36;44.66;100246.06;5095187;28;20036;-73
2022/05/02 09:37:39;;;;;;;6.75;2.95;;;;;;;19.49;44.10;100240.28;5076753;28;20068;-74
2022/05/02 09:40:13;;;;;;;7.75;3.10;;;;;;;19.36;44.69;100239.78;5095209;28;20044;-74
2022/05/02 09:42:51;;;;;;;6.25;2.70;;;;;;;19.38;44.77;100244.03;5094883;28;20115;-74
2022/05/02 09:51:56;;;;;;;4.13;2.67;;;;;;;19.44;45.50;100235.34;5076376;28;20617;-74
2022/05/02 09:58:03;;;;;;;5.55;2.40;;;;;;;19.47;46.59;100219.81;5094397;28;20374;-74
2022/05/02 10:03:37;;;;;;;4.15;2.70;;;;;;;19.57;43.91;100228.75;5076172;28;20052;-74
2022/05/02 10:06:09;;;;;;;4.97;2.65;;;;;;;19.62;44.70;100216.50;5093932;28;20036;-74
2022/05/02 10:08:54;;;;;;;4.78;2.47;;;;;;;19.71;45.29;100217.44;5076189;28;20447;-73
2022/05/02 10:11:48;;;;;;;7.93;2.70;;;;;;;20.00;42.49;100209.97;5075987;28;20401;-73
2022/05/02 10:14:33;;;;;;;6.35;2.70;;;;;;;19.99;42.79;100213.69;5075949;28;20485;-73
2022/05/02 10:17:07;;;;;;;4.25;2.70;;;;;;;20.02;43.32;100210.66;5052447;28;20063;-73
2022/05/02 10:20:00;;;;;;;4.38;2.67;;;;;;;20.19;42.20;100210.84;5053448;28;20112;-73
2022/05/02 10:22:30;;;;;;;;;;;;;;;20.37;43.00;100208.97;5053853;28;20052;-73
2022/05/02 10:25:02;;;;;;;6.80;2.53;;;;;;;20.50;40.22;100206.72;5053346;28;19921;-73
2022/05/02 10:27:44;;;;;;;4.78;2.20;;;;;;;20.58;40.45;100198.66;5053514;28;20437;-73
2022/05/02 10:30:13;;;;;;;7.25;2.55;;;;;;;20.66;41.53;100197.03;5053600;28;20114;-73
2022/05/02 10:32:53;;;;;;;4.40;2.50;;;;;;;21.04;41.26;100188.47;5052013;28;20052;-73
2022/05/02 10:35:25;;;;;;;4.82;2.20;;;;;;;20.95;40.26;100186.72;5052172;28;20505;-73
2022/05/02 10:37:58;;;;;;;6.15;2.78;;;;;;;21.16;40.93;100183.63;5052102;28;20053;-73
2022/05/02 10:40:38;;;;;;;4.25;2.40;;;;;;;21.40;39.81;100183.72;5053556;28;20397;-73
2022/05/02 10:43:09;;;;;;;4.65;2.60;;;;;;;21.52;40.54;100178.00;5053472;28;20068;-73
2022/05/02 10:45:39;;;;;;;4.75;2.60;;;;;;;21.73;38.64;100181.16;5052027;28;20151;-73
2022/05/02 10:48:24;;;;;;;4.38;2.67;;;;;;;21.98;37.36;100168.44;5053016;28;20045;-73
2022/05/02 10:51:00;;;;;;;3.47;2.22;;;;;;;21.87;36.29;100171.50;5053020;28;20432;-73
2022/05/02 10:53:53;;;;;;;5.63;2.42;;;;;;;21.89;36.12;100174.88;5052887;28;20041;-73
2022/05/02 10:56:27;;;;;;;3.85;2.20;;;;;;;21.58;36.56;100166.50;5053206;28;20474;-73
2022/05/02 10:59:03;;;;;;;5.22;2.35;;;;;;;21.76;37.15;100163.66;5052869;28;20037;-73
2022/05/02 11:02:05;;;;;;;5.95;2.60;;;;;;;22.28;36.84;100159.66;5052148;28;20441;-73
2022/05/02 11:04:50;;;;;;;6.63;2.30;;;;;;;22.33;35.30;100161.03;5051882;28;20061;-73
2022/05/02 11:07:26;;;;;;;5.90;2.70;;;;;;;22.46;36.15;100164.09;5051931;28;20080;-73
2022/05/02 11:10:05;;;;;;;4.90;2.40;;;;;;;22.57;35.33;100153.69;5051640;28;20388;-73
2022/05/02 11:12:38;;;;;;;4.97;2.78;;;;;;;22.73;35.00;100152.84;5056086;28;20045;-73
2022/05/02 11:15:12;;;;;;;4.95;2.47;;;;;;;22.78;34.53;100155.91;5062469;28;20063;-73
2022/05/02 11:17:56;;;;;;;4.78;2.55;;;;;;;22.78;34.10;100155.91;5077165;28;20389;-74
2022/05/02 11:20:46;;;;;;;4.55;2.40;;;;;;;22.80;33.73;100155.72;5077250;28;20480;-73
2022/05/02 11:23:47;;;;;;;7.82;2.40;;;;;;;22.59;33.91;100145.41;5075891;28;20040;-73
2022/05/02 11:26:21;;;;;;;4.45;2.58;;;;;;;22.44;34.21;100152.53;5075741;28;20049;-73
2022/05/02 11:29:07;;;;;;;6.88;2.60;;;;;;;22.31;33.68;100153.06;5075500;28;20075;-73
2022/05/02 11:31:49;;;;;;;4.80;2.60;;;;;;;22.11;33.54;100147.13;5076622;28;20124;-73
2022/05/02 11:34:34;;;;;;;4.57;2.60;;;;;;;22.22;34.56;100135.91;5076810;28;20048;-73
2022/05/02 11:37:15;;;;;;;5.43;2.58;;;;;;;22.19;34.64;100152.53;5075364;28;20053;-73
2022/05/02 11:39:51;;;;;;;4.82;2.83;;;;;;;22.23;35.10;100144.91;5076419;28;20055;-73
2022/05/02 11:42:22;;;;;;;4.93;2.53;;;;;;;22.16;34.64;100144.72;5075563;28;20045;-73
2022/05/02 11:45:06;;;;;;;5.75;2.72;;;;;;;22.08;34.96;100136.56;5075452;28;20452;-74
2022/05/02 11:47:58;;;;;;;4.45;2.70;;;;;;;22.30;34.35;100137.78;5076533;28;20040;-73
2022/05/02 11:50:28;;;;;;;7.05;2.67;;;;;;;22.14;34.10;100130.47;5075514;28;20048;-73
2022/05/02 11:52:59;;;;;;;7.55;2.33;;;;;;;22.00;34.63;100133.81;5076128;28;20048;-74
2022/05/02 11:55:31;;;;;;;5.53;2.70;;;;;;;22.09;33.65;100130.13;5076338;28;20466;-73
2022/05/02 11:58:05;;;;;;;8.70;2.55;;;;;;;22.18;33.55;100131.81;5074999;28;20109;-73
2022/05/02 12:00:37;;;;;;;6.20;3.00;;;;;;;22.25;33.96;100126.56;5075106;28;20075;-72
2022/05/02 12:03:12;;;;;;;4.55;2.60;;;;;;;22.44;32.80;100125.38;5075992;28;20051;-73
2022/05/02 12:05:42;;;;;;;5.03;2.80;;;;;;;22.44;33.42;100114.50;5076489;28;20041;-73
2022/05/02 12:08:24;;;;;;;4.68;3.00;;;;;;;22.60;32.91;100119.91;5074693;28;20072;-73
2022/05/02 12:11:06;;;;;;;4.43;2.80;;;;;;;22.57;33.02;100107.50;5074537;28;20053;-73
2022/05/02 12:13:36;;;;;;;5.35;2.80;;;;;;;22.62;32.98;100112.44;5074589;28;20052;-73
2022/05/02 12:16:09;;;;;;;5.05;2.55;;;;;;;22.83;33.36;100101.81;5073677;28;20139;-73
2022/05/02 12:18:45;;;;;;;5.72;2.78;;;;;;;22.88;32.36;100100.50;5074401;28;20451;-73
2022/05/02 12:21:22;;;;;;;3.65;2.40;;;;;;;22.89;28.86;100100.31;5074593;28;20132;-73
2022/05/02 12:23:52;;;;;;;5.40;2.80;;;;;;;22.75;29.81;100090.97;5073649;28;20402;-73